sensor_id;sensor_type;location;lat;lon;timestamp;P1;P2;P0
74430;PMS7003;62863;52.062;23.764;2022-09-03T00:03:26;11;9;6.7
74430;PMS7003;62863;52.062;23.764;2022-09-03T00:08:22;10.8;8.5;6.5
74430;PMS7003;62863;52.062;23.764;2022-09-03T00:13:15;10;8.3;6.8
74430;PMS7003;62863;52.062;23.764;2022-09-03T00:18:16;12.5;8;6.5
74430;PMS7003;62863;52.062;23.764;2022-09-03T00:23:32;9;6.5;6
74430;PMS7003;62863;52.062;23.764;2022-09-03T00:33:25;8.7;7;5.3
74430;PMS7003;62863;52.062;23.764;2022-09-03T00:38:42;8;7;6.3
74430;PMS7003;62863;52.062;23.764;2022-09-03T00:43:46;6;4.5;3.5
74430;PMS7003;62863;52.062;23.764;2022-09-03T00:48:25;6;3;3
74430;PMS7003;62863;52.062;23.764;2022-09-03T00:53:27;6.5;6.5;5
74430;PMS7003;62863;52.062;23.764;2022-09-03T00:58:39;8;6;4.5
74430;PMS7003;62863;52.062;23.764;2022-09-03T01:03:31;6;5.3;3
74430;PMS7003;62863;52.062;23.764;2022-09-03T01:08:19;11;7;5
74430;PMS7003;62863;52.062;23.764;2022-09-03T01:13:23;5;3;3
74430;PMS7003;62863;52.062;23.764;2022-09-03T01:18:48;3;3;2
74430;PMS7003;62863;52.062;23.764;2022-09-03T01:24:10;5.7;4;2.7
74430;PMS7003;62863;52.062;23.764;2022-09-03T01:39:23;4;2.5;2
74430;PMS7003;62863;52.062;23.764;2022-09-03T01:43:47;2;2;1.5
74430;PMS7003;62863;52.062;23.764;2022-09-03T01:48:30;2;2;2
74430;PMS7003;62863;52.062;23.764;2022-09-03T01:53:30;2;2;1.5
74430;PMS7003;62863;52.062;23.764;2022-09-03T01:58:07;3;3;2
74430;PMS7003;62863;52.062;23.764;2022-09-03T02:03:42;2;2;2
74430;PMS7003;62863;52.062;23.764;2022-09-03T02:08:05;4.3;3.7;2.7
74430;PMS7003;62863;52.062;23.764;2022-09-03T02:13:30;4.3;3.7;2.7
74430;PMS7003;62863;52.062;23.764;2022-09-03T02:18:37;4.3;3.7;2.7
74430;PMS7003;62863;52.062;23.764;2022-09-03T02:23:37;4;3.5;3.5
74430;PMS7003;62863;52.062;23.764;2022-09-03T02:28:48;3.7;3.7;3.7
74430;PMS7003;62863;52.062;23.764;2022-09-03T02:33:46;6;3;3
74430;PMS7003;62863;52.062;23.764;2022-09-03T02:38:46;4.3;3.7;2
74430;PMS7003;62863;52.062;23.764;2022-09-03T02:43:04;6.7;4.7;3.7
74430;PMS7003;62863;52.062;23.764;2022-09-03T02:48:24;6;4.5;2.5
74430;PMS7003;62863;52.062;23.764;2022-09-03T02:53:48;7;4;2.3
74430;PMS7003;62863;52.062;23.764;2022-09-03T02:58:36;8;6;3
74430;PMS7003;62863;52.062;23.764;2022-09-03T03:03:46;5;4;2.5
74430;PMS7003;62863;52.062;23.764;2022-09-03T03:08:25;4.3;3.7;2.3
74430;PMS7003;62863;52.062;23.764;2022-09-03T03:13:36;3;3;3
74430;PMS7003;62863;52.062;23.764;2022-09-03T03:18:46;5;5;2.5
74430;PMS7003;62863;52.062;23.764;2022-09-03T03:23:22;3;2.7;2
74430;PMS7003;62863;52.062;23.764;2022-09-03T03:28:26;4;2.3;1.7
74430;PMS7003;62863;52.062;23.764;2022-09-03T03:33:26;4.7;3;2.3
74430;PMS7003;62863;52.062;23.764;2022-09-03T03:38:14;2.5;2.5;2.5
74430;PMS7003;62863;52.062;23.764;2022-09-03T03:43:26;2.3;2;1.3
74430;PMS7003;62863;52.062;23.764;2022-09-03T03:48:04;1.5;1.5;1
74430;PMS7003;62863;52.062;23.764;2022-09-03T03:53:52;3.5;1.5;1
74430;PMS7003;62863;52.062;23.764;2022-09-03T03:58:48;2.5;2.5;1.8
74430;PMS7003;62863;52.062;23.764;2022-09-03T04:08:47;2;1.5;1
74430;PMS7003;62863;52.062;23.764;2022-09-03T04:13:48;3;2;1.3
74430;PMS7003;62863;52.062;23.764;2022-09-03T04:18:48;2.5;2.5;1.5
74430;PMS7003;62863;52.062;23.764;2022-09-03T04:23:29;4;3.5;2.5
74430;PMS7003;62863;52.062;23.764;2022-09-03T04:28:04;2;2;2
74430;PMS7003;62863;52.062;23.764;2022-09-03T04:33:48;1;1;1
74430;PMS7003;62863;52.062;23.764;2022-09-03T04:38:40;1;1;1
74430;PMS7003;62863;52.062;23.764;2022-09-03T04:43:28;1.7;1.3;1.3
74430;PMS7003;62863;52.062;23.764;2022-09-03T04:48:40;4.8;2;1.8
74430;PMS7003;62863;52.062;23.764;2022-09-03T04:53:39;3;3;2
74430;PMS7003;62863;52.062;23.764;2022-09-03T04:58:36;10;8;6.5
74430;PMS7003;62863;52.062;23.764;2022-09-03T05:03:34;10;8;6.5
74430;PMS7003;62863;52.062;23.764;2022-09-03T05:08:48;7;7;4
74430;PMS7003;62863;52.062;23.764;2022-09-03T05:13:04;9;7;5.5
74430;PMS7003;62863;52.062;23.764;2022-09-03T05:18:14;7.3;5.7;4
74430;PMS7003;62863;52.062;23.764;2022-09-03T05:23:48;9.5;6.5;5.5
74430;PMS7003;62863;52.062;23.764;2022-09-03T05:28:37;8;8;6
74430;PMS7003;62863;52.062;23.764;2022-09-03T05:33:49;7.5;7.5;5
74430;PMS7003;62863;52.062;23.764;2022-09-03T05:38:28;12.3;9.5;7.8
74430;PMS7003;62863;52.062;23.764;2022-09-03T05:43:24;16.3;15;9.7
74430;PMS7003;62863;52.062;23.764;2022-09-03T05:48:38;27;22.5;17.5
74430;PMS7003;62863;52.062;23.764;2022-09-03T05:53:24;25.5;24;16
74430;PMS7003;62863;52.062;23.764;2022-09-03T05:58:39;21;17.7;12.7
74430;PMS7003;62863;52.062;23.764;2022-09-03T06:03:12;12;12;10
74430;PMS7003;62863;52.062;23.764;2022-09-03T06:08:04;12.3;10;8
74430;PMS7003;62863;52.062;23.764;2022-09-03T06:13:04;8.5;7.5;6
74430;PMS7003;62863;52.062;23.764;2022-09-03T06:18:25;5.3;4;3.7
74430;PMS7003;62863;52.062;23.764;2022-09-03T06:23:48;7;6;4.5
74430;PMS7003;62863;52.062;23.764;2022-09-03T06:28:40;4;4;3
74430;PMS7003;62863;52.062;23.764;2022-09-03T06:33:26;2.8;2.8;2.8
74430;PMS7003;62863;52.062;23.764;2022-09-03T06:38:50;3;2.7;1.7
74430;PMS7003;62863;52.062;23.764;2022-09-03T06:43:48;2;2;1.6
74430;PMS7003;62863;52.062;23.764;2022-09-03T06:48:48;3.2;2.4;2.2
74430;PMS7003;62863;52.062;23.764;2022-09-03T06:53:25;1.5;1.5;1.5
74430;PMS7003;62863;52.062;23.764;2022-09-03T06:58:14;2.8;2.8;2.3
74430;PMS7003;62863;52.062;23.764;2022-09-03T07:03:26;3.8;3;2.4
74430;PMS7003;62863;52.062;23.764;2022-09-03T07:08:36;3;2.8;2.3
74430;PMS7003;62863;52.062;23.764;2022-09-03T07:13:37;3.6;2.4;2
74430;PMS7003;62863;52.062;23.764;2022-09-03T07:18:14;3.3;2.5;2
74430;PMS7003;62863;52.062;23.764;2022-09-03T07:23:37;2;1.6;1.4
74430;PMS7003;62863;52.062;23.764;2022-09-03T07:28:14;2.3;1.5;1.3
74430;PMS7003;62863;52.062;23.764;2022-09-03T07:33:34;1.8;1.8;1.5
74430;PMS7003;62863;52.062;23.764;2022-09-03T07:38:48;2.3;2;1.8
74430;PMS7003;62863;52.062;23.764;2022-09-03T07:43:04;2.3;2.3;2.3
74430;PMS7003;62863;52.062;23.764;2022-09-03T07:48:04;2;2;2
74430;PMS7003;62863;52.062;23.764;2022-09-03T07:53:48;2;1.8;1.5
74430;PMS7003;62863;52.062;23.764;2022-09-03T07:58:36;2;1.5;1
74430;PMS7003;62863;52.062;23.764;2022-09-03T08:03:41;2.3;2;1.3
74430;PMS7003;62863;52.062;23.764;2022-09-03T08:08:34;1.8;1;1
74430;PMS7003;62863;52.062;23.764;2022-09-03T08:13:34;1.5;0.5;0
74430;PMS7003;62863;52.062;23.764;2022-09-03T08:18:50;2;1.5;1
74430;PMS7003;62863;52.062;23.764;2022-09-03T08:23:14;3.4;2.6;1.6
74430;PMS7003;62863;52.062;23.764;2022-09-03T08:28:26;2.8;2.5;2
74430;PMS7003;62863;52.062;23.764;2022-09-03T08:33:04;1.8;1.2;0.8
74430;PMS7003;62863;52.062;23.764;2022-09-03T08:38:04;2.6;2.6;2
74430;PMS7003;62863;52.062;23.764;2022-09-03T08:43:42;3;2;1.3
74430;PMS7003;62863;52.062;23.764;2022-09-03T08:48:24;1.6;1.6;1.2
74430;PMS7003;62863;52.062;23.764;2022-09-03T08:53:50;3;1;1
74430;PMS7003;62863;52.062;23.764;2022-09-03T08:58:48;3.3;1.7;1
74430;PMS7003;62863;52.062;23.764;2022-09-03T09:03:20;1.3;0.3;0.3
74430;PMS7003;62863;52.062;23.764;2022-09-03T09:08:55;1.4;1;0.6
74430;PMS7003;62863;52.062;23.764;2022-09-03T09:19:06;1.3;1.3;0.8
74430;PMS7003;62863;52.062;23.764;2022-09-03T09:23:05;1.4;0.8;0.6
74430;PMS7003;62863;52.062;23.764;2022-09-03T09:28:19;1.3;1.3;1
74430;PMS7003;62863;52.062;23.764;2022-09-03T09:33:44;4.4;2.8;2
74430;PMS7003;62863;52.062;23.764;2022-09-03T09:38:35;3;2.2;1.6
74430;PMS7003;62863;52.062;23.764;2022-09-03T09:43:36;3.3;3;2
74430;PMS7003;62863;52.062;23.764;2022-09-03T09:48:37;3;2;1.3
74430;PMS7003;62863;52.062;23.764;2022-09-03T09:53:36;3.4;2.8;2.2
74430;PMS7003;62863;52.062;23.764;2022-09-03T09:58:25;5.4;4;3.2
74430;PMS7003;62863;52.062;23.764;2022-09-03T10:03:34;4.5;3;2.3
74430;PMS7003;62863;52.062;23.764;2022-09-03T10:08:51;3.5;3.3;2.3
74430;PMS7003;62863;52.062;23.764;2022-09-03T10:13:17;4.7;3.7;3
74430;PMS7003;62863;52.062;23.764;2022-09-03T10:19:10;5.3;3.5;2.8
74430;PMS7003;62863;52.062;23.764;2022-09-03T10:23:53;5;4.3;3.7
74430;PMS7003;62863;52.062;23.764;2022-09-03T10:28:50;5.5;3.5;2.5
74430;PMS7003;62863;52.062;23.764;2022-09-03T10:33:50;4.3;4;2.5
74430;PMS7003;62863;52.062;23.764;2022-09-03T10:38:31;4.2;3.4;2.2
74430;PMS7003;62863;52.062;23.764;2022-09-03T10:43:52;4.3;4;3
74430;PMS7003;62863;52.062;23.764;2022-09-03T10:59:35;4.7;3;2
74430;PMS7003;62863;52.062;23.764;2022-09-03T11:03:39;3.3;2.5;1.8
74430;PMS7003;62863;52.062;23.764;2022-09-03T11:08:13;1.7;1.3;1
74430;PMS7003;62863;52.062;23.764;2022-09-03T11:13:25;2.7;2.3;1.7
74430;PMS7003;62863;52.062;23.764;2022-09-03T11:18:25;2.5;2;1.5
74430;PMS7003;62863;52.062;23.764;2022-09-03T11:24:02;2.5;1.5;1.5
74430;PMS7003;62863;52.062;23.764;2022-09-03T11:28:44;2;1.5;1.5
74430;PMS7003;62863;52.062;23.764;2022-09-03T11:33:26;0.5;0.5;0.5
74430;PMS7003;62863;52.062;23.764;2022-09-03T11:38:20;3.3;1.3;0.8
74430;PMS7003;62863;52.062;23.764;2022-09-03T11:43:36;1;0.5;0.3
74430;PMS7003;62863;52.062;23.764;2022-09-03T11:48:52;1;0.6;0.2
74430;PMS7003;62863;52.062;23.764;2022-09-03T11:53:24;1;1;0.7
74430;PMS7003;62863;52.062;23.764;2022-09-03T11:58:36;1;0.5;0.3
74430;PMS7003;62863;52.062;23.764;2022-09-03T12:03:13;0.5;0;0
74430;PMS7003;62863;52.062;23.764;2022-09-03T12:13:10;1.2;0.8;0.4
74430;PMS7003;62863;52.062;23.764;2022-09-03T12:18:40;1;0.8;0.4
74430;PMS7003;62863;52.062;23.764;2022-09-03T12:23:41;0.8;0.5;0
74430;PMS7003;62863;52.062;23.764;2022-09-03T12:28:37;2;1.7;1
74430;PMS7003;62863;52.062;23.764;2022-09-03T12:33:39;1.4;1;0.6
74430;PMS7003;62863;52.062;23.764;2022-09-03T12:38:52;1.6;1.2;0.8
74430;PMS7003;62863;52.062;23.764;2022-09-03T12:43:26;1.4;0.6;0.4
74430;PMS7003;62863;52.062;23.764;2022-09-03T12:48:11;2.4;1;0.2
74430;PMS7003;62863;52.062;23.764;2022-09-03T12:53:26;1.2;1;0.2
74430;PMS7003;62863;52.062;23.764;2022-09-03T12:58:53;2.3;1.5;1.3
74430;PMS7003;62863;52.062;23.764;2022-09-03T13:03:53;1.2;1.2;0.4
74430;PMS7003;62863;52.062;23.764;2022-09-03T13:08:29;1.6;1.4;0.6
74430;PMS7003;62863;52.062;23.764;2022-09-03T13:14:04;1.2;0.6;0
74430;PMS7003;62863;52.062;23.764;2022-09-03T13:18:44;1.6;1.2;0.8
74430;PMS7003;62863;52.062;23.764;2022-09-03T13:23:44;1.2;1;0.6
74430;PMS7003;62863;52.062;23.764;2022-09-03T13:28:45;2;1;0.8
74430;PMS7003;62863;52.062;23.764;2022-09-03T13:33:26;2.4;1.8;0.8
74430;PMS7003;62863;52.062;23.764;2022-09-03T13:38:38;2;1;0.4
74430;PMS7003;62863;52.062;23.764;2022-09-03T13:43:31;0.2;0.2;0.2
74430;PMS7003;62863;52.062;23.764;2022-09-03T13:48:31;1.2;1.2;0.6
74430;PMS7003;62863;52.062;23.764;2022-09-03T13:53:56;1.4;0.2;0
74430;PMS7003;62863;52.062;23.764;2022-09-03T13:58:47;1.3;0.5;0
74430;PMS7003;62863;52.062;23.764;2022-09-03T14:03:32;0.6;0.6;0.2
74430;PMS7003;62863;52.062;23.764;2022-09-03T14:08:27;1.2;0.8;0.4
74430;PMS7003;62863;52.062;23.764;2022-09-03T14:16:37;3.4;2.4;1.8
74430;PMS7003;62863;52.062;23.764;2022-09-03T14:18:53;1;0.4;0
74430;PMS7003;62863;52.062;23.764;2022-09-03T14:23:24;1;0.6;0.2
74430;PMS7003;62863;52.062;23.764;2022-09-03T14:28:19;0.4;0.4;0.2
74430;PMS7003;62863;52.062;23.764;2022-09-03T14:33:17;2.2;1;0.6
74430;PMS7003;62863;52.062;23.764;2022-09-03T14:38:45;0.4;0.4;0.4
74430;PMS7003;62863;52.062;23.764;2022-09-03T14:43:35;2.4;1.8;1.2
74430;PMS7003;62863;52.062;23.764;2022-09-03T14:54:13;0.6;0.2;0
74430;PMS7003;62863;52.062;23.764;2022-09-03T14:58:52;0.8;0.3;0
74430;PMS7003;62863;52.062;23.764;2022-09-03T15:03:36;1.4;1;0.6
74430;PMS7003;62863;52.062;23.764;2022-09-03T15:09:55;2.2;1.2;0.6
74430;PMS7003;62863;52.062;23.764;2022-09-03T15:13:16;1.6;1.4;1
74430;PMS7003;62863;52.062;23.764;2022-09-03T15:19:12;1.8;1.2;1.2
74430;PMS7003;62863;52.062;23.764;2022-09-03T15:23:18;1.8;1.6;1.4
74430;PMS7003;62863;52.062;23.764;2022-09-03T15:29:22;2;2;1.2
74430;PMS7003;62863;52.062;23.764;2022-09-03T15:33:51;2;1.8;1.4
74430;PMS7003;62863;52.062;23.764;2022-09-03T15:38:38;1;0.8;0.6
74430;PMS7003;62863;52.062;23.764;2022-09-03T15:43:48;2;1.2;1
74430;PMS7003;62863;52.062;23.764;2022-09-03T15:48:47;1.4;1.4;1
74430;PMS7003;62863;52.062;23.764;2022-09-03T15:53:52;1.6;1.2;0.8
74430;PMS7003;62863;52.062;23.764;2022-09-03T15:58:30;1.5;1.5;1
74430;PMS7003;62863;52.062;23.764;2022-09-03T16:03:07;3.6;2.4;1.6
74430;PMS7003;62863;52.062;23.764;2022-09-03T16:08:39;2.6;2.2;1.6
74430;PMS7003;62863;52.062;23.764;2022-09-03T16:18:22;3.8;3;2.2
74430;PMS7003;62863;52.062;23.764;2022-09-03T16:23:42;3;2.6;2.2
74430;PMS7003;62863;52.062;23.764;2022-09-03T16:28:52;3.4;3;2.2
74430;PMS7003;62863;52.062;23.764;2022-09-03T16:33:58;4;3.8;3.2
74430;PMS7003;62863;52.062;23.764;2022-09-03T16:38:34;3.8;3.8;3.2
74430;PMS7003;62863;52.062;23.764;2022-09-03T16:43:54;3.8;3.8;3.4
74430;PMS7003;62863;52.062;23.764;2022-09-03T16:48:58;5.2;3.8;3
74430;PMS7003;62863;52.062;23.764;2022-09-03T17:08:54;6.6;5.2;3.6
74430;PMS7003;62863;52.062;23.764;2022-09-03T17:13:51;8;6.8;4.6
74430;PMS7003;62863;52.062;23.764;2022-09-03T17:23:53;12.4;9;5.4
74430;PMS7003;62863;52.062;23.764;2022-09-03T17:28:48;10.2;7;4.8
74430;PMS7003;62863;52.062;23.764;2022-09-03T17:34:30;6.6;5;3.6
74430;PMS7003;62863;52.062;23.764;2022-09-03T17:43:44;13.8;7.8;5
74430;PMS7003;62863;52.062;23.764;2022-09-03T17:49:09;15.6;12.8;8.4
74430;PMS7003;62863;52.062;23.764;2022-09-03T17:53:21;16;13.2;8.8
74430;PMS7003;62863;52.062;23.764;2022-09-03T17:58:52;22.6;17.6;12.2
74430;PMS7003;62863;52.062;23.764;2022-09-03T18:03:28;15;12;9.5
74430;PMS7003;62863;52.062;23.764;2022-09-03T18:08:54;9;6.8;4.6
74430;PMS7003;62863;52.062;23.764;2022-09-03T18:14:48;5.6;4.4;3.6
74430;PMS7003;62863;52.062;23.764;2022-09-03T18:18:42;6.2;5.2;4.4
74430;PMS7003;62863;52.062;23.764;2022-09-03T18:28:36;9.8;8.2;6.2
74430;PMS7003;62863;52.062;23.764;2022-09-03T18:33:25;9;7.8;5.6
74430;PMS7003;62863;52.062;23.764;2022-09-03T18:38:04;10.6;7.6;5.4
74430;PMS7003;62863;52.062;23.764;2022-09-03T18:43:40;10;8.8;6.6
74430;PMS7003;62863;52.062;23.764;2022-09-03T18:48:32;8.6;8;5.8
74430;PMS7003;62863;52.062;23.764;2022-09-03T18:53:48;10.6;8.2;6
74430;PMS7003;62863;52.062;23.764;2022-09-03T18:59:00;9.6;7;5.2
74430;PMS7003;62863;52.062;23.764;2022-09-03T19:03:51;12.5;9.5;7
74430;PMS7003;62863;52.062;23.764;2022-09-03T19:08:29;9.6;8.8;7.2
74430;PMS7003;62863;52.062;23.764;2022-09-03T19:13:50;12;10.6;7.8
74430;PMS7003;62863;52.062;23.764;2022-09-03T19:19:00;11.4;8.4;6.6
74430;PMS7003;62863;52.062;23.764;2022-09-03T19:23:48;11.6;9.8;6.6
74430;PMS7003;62863;52.062;23.764;2022-09-03T19:28:18;11;10.2;7
74430;PMS7003;62863;52.062;23.764;2022-09-03T19:39:13;13.6;12.6;9.6
74430;PMS7003;62863;52.062;23.764;2022-09-03T19:43:43;19.8;16.2;11.4
74430;PMS7003;62863;52.062;23.764;2022-09-03T19:48:31;22.3;18.5;13
74430;PMS7003;62863;52.062;23.764;2022-09-03T19:53:40;25.2;22;15.6
74430;PMS7003;62863;52.062;23.764;2022-09-03T19:58:37;18;17;11.8
74430;PMS7003;62863;52.062;23.764;2022-09-03T20:03:24;23;19;13.2
74430;PMS7003;62863;52.062;23.764;2022-09-03T20:08:38;23.2;20.4;14.4
74430;PMS7003;62863;52.062;23.764;2022-09-03T20:13:50;24;19.8;14.8
74430;PMS7003;62863;52.062;23.764;2022-09-03T20:18:26;24.3;20.5;14.5
74430;PMS7003;62863;52.062;23.764;2022-09-03T20:23:34;25;20.4;15.2
74430;PMS7003;62863;52.062;23.764;2022-09-03T20:28:16;23.2;19.6;13.8
74430;PMS7003;62863;52.062;23.764;2022-09-03T20:33:52;23;19;13.6
74430;PMS7003;62863;52.062;23.764;2022-09-03T20:38:53;19;17;12.4
74430;PMS7003;62863;52.062;23.764;2022-09-03T20:48:55;14.6;10.6;8.6
74430;PMS7003;62863;52.062;23.764;2022-09-03T20:53:54;15.8;13.4;9.2
74430;PMS7003;62863;52.062;23.764;2022-09-03T20:58:33;20;17.8;13
74430;PMS7003;62863;52.062;23.764;2022-09-03T21:03:24;18.4;15.8;11.6
74430;PMS7003;62863;52.062;23.764;2022-09-03T21:13:13;26.8;21.4;15.8
74430;PMS7003;62863;52.062;23.764;2022-09-03T21:18:23;29.3;27.3;19.5
74430;PMS7003;62863;52.062;23.764;2022-09-03T21:23:32;29.8;25.2;18
74430;PMS7003;62863;52.062;23.764;2022-09-03T21:28:59;20.6;18.6;12.8
74430;PMS7003;62863;52.062;23.764;2022-09-03T21:33:36;14;12;9.8
74430;PMS7003;62863;52.062;23.764;2022-09-03T21:38:05;25.8;23.8;17.6
74430;PMS7003;62863;52.062;23.764;2022-09-03T21:43:07;24.8;23;15
74430;PMS7003;62863;52.062;23.764;2022-09-03T21:48:36;32.8;28.4;20.2
74430;PMS7003;62863;52.062;23.764;2022-09-03T21:53:40;32.8;26.4;19.8
74430;PMS7003;62863;52.062;23.764;2022-09-03T21:58:45;30.6;24.6;16.8
74430;PMS7003;62863;52.062;23.764;2022-09-03T22:03:12;28.4;24.8;16.2
74430;PMS7003;62863;52.062;23.764;2022-09-03T22:08:17;28;24.2;15.6
74430;PMS7003;62863;52.062;23.764;2022-09-03T22:13:42;29.2;25;17.4
74430;PMS7003;62863;52.062;23.764;2022-09-03T22:18:29;29.5;23.5;15.5
74430;PMS7003;62863;52.062;23.764;2022-09-03T22:23:44;30.6;25.2;18.4
74430;PMS7003;62863;52.062;23.764;2022-09-03T22:28:41;29.4;26;19.4
74430;PMS7003;62863;52.062;23.764;2022-09-03T22:33:30;25.8;22.6;16
74430;PMS7003;62863;52.062;23.764;2022-09-03T22:38:42;23.2;19.8;14.6
74430;PMS7003;62863;52.062;23.764;2022-09-03T22:43:56;23;19.4;13.2
74430;PMS7003;62863;52.062;23.764;2022-09-03T22:48:35;24;20.6;14.8
74430;PMS7003;62863;52.062;23.764;2022-09-03T22:53:19;21;17.8;13
74430;PMS7003;62863;52.062;23.764;2022-09-03T22:58:07;19.6;16.2;12.2
74430;PMS7003;62863;52.062;23.764;2022-09-03T23:03:55;19.2;16.2;12.2
74430;PMS7003;62863;52.062;23.764;2022-09-03T23:08:47;17.2;15;11.4
74430;PMS7003;62863;52.062;23.764;2022-09-03T23:13:41;17.2;13.4;10.4
74430;PMS7003;62863;52.062;23.764;2022-09-03T23:18:44;17.2;13.8;10.2
74430;PMS7003;62863;52.062;23.764;2022-09-03T23:23:38;14.5;12.3;9.3
74430;PMS7003;62863;52.062;23.764;2022-09-03T23:28:31;18.2;14.6;10.4
74430;PMS7003;62863;52.062;23.764;2022-09-03T23:33:24;16.6;14.2;10.8
74430;PMS7003;62863;52.062;23.764;2022-09-03T23:38:08;15.4;14;10.8
74430;PMS7003;62863;52.062;23.764;2022-09-03T23:43:38;17;15.6;11.4
74430;PMS7003;62863;52.062;23.764;2022-09-03T23:49:12;17;14.4;10.6
74430;PMS7003;62863;52.062;23.764;2022-09-03T23:53:22;15.6;14.4;11
74430;PMS7003;62863;52.062;23.764;2022-09-03T23:58:50;16.8;15.8;11.2
